createdAt,value
2019-03-13T00:03:17.514Z,10.70
2019-03-13T00:08:23.745Z,10.70
2019-03-13T00:13:31.252Z,10.70
2019-03-13T00:18:39.051Z,10.80
2019-03-13T00:23:46.354Z,11.00
2019-03-13T00:28:53.304Z,11.00
2019-03-13T00:34:01.040Z,10.70
2019-03-13T00:39:08.173Z,10.60
2019-03-13T00:44:14.292Z,10.50
2019-03-13T00:49:21.475Z,10.70
2019-03-13T00:54:29.388Z,10.90
2019-03-13T00:59:37.087Z,10.70
2019-03-13T01:04:49.838Z,10.90
2019-03-13T01:09:58.159Z,11.20
2019-03-13T01:15:04.935Z,11.20
2019-03-13T01:20:12.394Z,11.00
2019-03-13T01:25:20.114Z,11.00
2019-03-13T01:30:28.731Z,11.10
2019-03-13T01:35:42.467Z,11.20
2019-03-13T01:40:50.466Z,11.30
2019-03-13T01:45:58.444Z,11.30
2019-03-13T01:51:04.826Z,11.10
2019-03-13T01:56:11.315Z,11.10
2019-03-13T02:01:19.027Z,10.80
2019-03-13T02:06:25.898Z,10.90
2019-03-13T02:11:35.447Z,10.90
2019-03-13T02:16:43.111Z,10.90
2019-03-13T02:21:50.646Z,10.80
2019-03-13T02:26:58.271Z,10.80
2019-03-13T02:32:04.491Z,11.20
2019-03-13T02:37:12.221Z,11.60
2019-03-13T02:42:19.947Z,11.80
2019-03-13T02:47:26.093Z,11.50
2019-03-13T02:52:33.379Z,11.30
2019-03-13T02:57:41.135Z,11.20
2019-03-13T03:02:52.223Z,11.10
2019-03-13T03:08:00.083Z,11.10
2019-03-13T03:13:08.065Z,11.20
2019-03-13T03:18:15.671Z,11.30
2019-03-13T03:23:22.600Z,11.20
2019-03-13T03:28:30.338Z,11.10
2019-03-13T03:33:37.731Z,11.20
2019-03-13T03:38:45.521Z,11.10
2019-03-13T03:43:53.240Z,11.10
2019-03-13T03:49:01.228Z,11.10
2019-03-13T03:54:08.671Z,11.10
2019-03-13T03:59:14.787Z,11.20
2019-03-13T04:04:22.924Z,11.30
2019-03-13T04:09:30.795Z,11.30
2019-03-13T04:14:38.340Z,11.20
2019-03-13T04:19:45.019Z,11.10
2019-03-13T04:24:53.232Z,11.10
2019-03-13T04:30:01.182Z,11.10
2019-03-13T04:35:09.204Z,11.00
2019-03-13T04:40:17.043Z,11.10
2019-03-13T04:45:24.959Z,11.20
2019-03-13T04:50:32.460Z,11.20
2019-03-13T04:55:40.217Z,11.30
2019-03-13T05:00:47.887Z,11.40
2019-03-13T05:06:03.473Z,11.50
2019-03-13T05:11:11.143Z,11.70
2019-03-13T05:16:18.882Z,11.80
2019-03-13T05:21:25.108Z,11.90
2019-03-13T05:26:32.523Z,12.10
2019-03-13T05:31:40.500Z,12.20
2019-03-13T05:36:48.117Z,12.40
2019-03-13T05:41:55.469Z,12.50
2019-03-13T05:47:03.048Z,12.70
2019-03-13T05:52:09.664Z,12.70
2019-03-13T05:57:16.622Z,12.80
2019-03-13T06:02:23.819Z,12.70
2019-03-13T06:07:30.358Z,12.50
2019-03-13T06:12:38.298Z,12.40
2019-03-13T06:17:44.356Z,12.50
2019-03-13T06:22:50.516Z,12.50
2019-03-13T06:27:56.704Z,12.40
2019-03-13T06:33:04.191Z,12.70
2019-03-13T06:38:11.074Z,12.70
2019-03-13T06:43:18.650Z,12.80
2019-03-13T06:48:25.686Z,12.70
2019-03-13T06:53:33.395Z,12.60
2019-03-13T06:58:59.939Z,12.60
2019-03-13T07:04:26.390Z,12.80
2019-03-13T07:09:39.695Z,12.90
2019-03-13T07:15:20.239Z,12.90
2019-03-13T07:20:56.316Z,12.90
2019-03-13T07:26:21.036Z,13.00
2019-03-13T07:31:38.206Z,13.20
2019-03-13T07:37:07.671Z,13.10
2019-03-13T07:42:32.507Z,13.20
2019-03-13T07:48:05.068Z,13.50
2019-03-13T07:53:38.177Z,13.50
2019-03-13T07:59:13.435Z,13.70
2019-03-13T08:04:31.125Z,13.90
2019-03-13T08:10:06.770Z,13.90
2019-03-13T08:15:42.110Z,14.20
2019-03-13T08:21:17.941Z,14.10
2019-03-13T08:26:33.313Z,14.30
2019-03-13T08:31:53.626Z,14.00
2019-03-13T08:37:21.251Z,14.00
2019-03-13T08:42:44.094Z,14.00
2019-03-13T08:48:14.876Z,13.90
2019-03-13T08:53:56.040Z,13.60
2019-03-13T08:59:23.526Z,13.40
2019-03-13T09:04:41.924Z,13.20
2019-03-13T09:10:16.159Z,13.20
2019-03-13T09:15:43.780Z,13.10
2019-03-13T09:21:12.780Z,12.80
2019-03-13T09:26:37.927Z,12.30
2019-03-13T09:32:04.389Z,11.70
2019-03-13T09:37:37.233Z,11.30
2019-03-13T09:43:00.773Z,11.30
2019-03-13T09:48:27.155Z,11.50
2019-03-13T09:53:50.512Z,11.50
2019-03-13T09:59:26.781Z,11.60
2019-03-13T10:04:55.480Z,11.60
2019-03-13T10:10:14.923Z,11.80
2019-03-13T10:15:44.425Z,11.90
2019-03-13T10:21:12.743Z,11.80
2019-03-13T10:26:40.683Z,12.00
2019-03-13T10:31:53.955Z,12.10
2019-03-13T10:37:14.613Z,12.30
2019-03-13T10:42:46.003Z,12.70
2019-03-13T10:48:09.509Z,12.70
2019-03-13T10:53:49.923Z,13.00
2019-03-13T10:59:07.328Z,13.60
2019-03-13T11:04:50.913Z,13.20
2019-03-13T11:10:14.219Z,12.90
2019-03-13T11:15:39.706Z,12.70
2019-03-13T11:21:11.724Z,12.70
2019-03-13T11:26:49.954Z,12.60
2019-03-13T11:32:18.203Z,12.90
2019-03-13T11:37:47.744Z,12.60
2019-03-13T11:43:18.866Z,12.80
2019-03-13T11:48:40.879Z,13.00
2019-03-13T11:54:22.337Z,13.20
2019-03-13T11:59:44.993Z,14.90
2019-03-13T12:05:13.746Z,14.10
2019-03-13T12:10:49.419Z,13.50
2019-03-13T12:16:14.430Z,13.40
2019-03-13T12:21:43.326Z,13.70
2019-03-13T12:27:08.320Z,13.20
2019-03-13T12:32:28.412Z,13.50
2019-03-13T12:38:00.035Z,13.40
2019-03-13T12:43:25.906Z,13.50
2019-03-13T12:48:40.732Z,13.40
2019-03-13T12:53:59.542Z,13.50
2019-03-13T12:59:23.463Z,13.40
2019-03-13T13:04:47.142Z,12.90
2019-03-13T13:10:11.490Z,12.80
2019-03-13T13:15:36.746Z,12.60
2019-03-13T13:20:43.598Z,12.50
2019-03-13T13:25:51.307Z,12.40
2019-03-13T13:30:58.871Z,12.20
2019-03-13T13:36:04.891Z,12.30
2019-03-13T13:41:12.179Z,12.40
2019-03-13T13:46:28.488Z,12.90
2019-03-13T13:51:34.964Z,13.20
2019-03-13T13:56:42.559Z,13.30
2019-03-13T14:01:49.530Z,13.90
2019-03-13T14:06:56.115Z,14.10
2019-03-13T14:12:03.132Z,13.50
2019-03-13T14:17:09.185Z,13.50
2019-03-13T14:22:15.769Z,13.60
2019-03-13T14:27:22.795Z,13.20
2019-03-13T14:32:28.840Z,13.20
2019-03-13T14:37:35.169Z,13.10
2019-03-13T14:42:42.507Z,13.20
2019-03-13T14:47:50.034Z,13.20
2019-03-13T14:52:55.930Z,13.30
2019-03-13T14:58:02.783Z,13.00
2019-03-13T15:03:10.608Z,13.10
2019-03-13T15:08:18.127Z,13.20
2019-03-13T15:13:24.008Z,13.10
2019-03-13T15:18:30.983Z,13.10
2019-03-13T15:23:36.928Z,13.60
2019-03-13T15:28:43.975Z,13.80
2019-03-13T15:33:51.886Z,13.50
2019-03-13T15:38:57.934Z,13.50
2019-03-13T15:44:03.934Z,13.60
2019-03-13T15:49:10.758Z,14.00
2019-03-13T15:54:18.472Z,13.80
2019-03-13T15:59:24.554Z,13.70
2019-03-13T16:04:31.579Z,13.30
2019-03-13T16:09:39.301Z,13.00
2019-03-13T16:14:45.468Z,12.80
2019-03-13T16:19:52.928Z,12.80
2019-03-13T16:24:59.708Z,12.80
2019-03-13T16:30:10.431Z,12.70
2019-03-13T16:35:16.857Z,13.10
2019-03-13T16:40:23.728Z,13.10
2019-03-13T16:45:31.274Z,13.20
2019-03-13T16:50:39.029Z,13.20
2019-03-13T16:55:45.010Z,13.10
2019-03-13T17:00:53.076Z,13.00
2019-03-13T17:06:00.758Z,12.70
2019-03-13T17:11:08.262Z,12.40
2019-03-13T17:16:15.949Z,12.30
2019-03-13T17:21:23.606Z,12.30
2019-03-13T17:26:31.166Z,12.20
2019-03-13T17:31:38.833Z,12.50
2019-03-13T17:36:44.718Z,12.40
2019-03-13T17:41:51.622Z,12.30
2019-03-13T17:46:59.335Z,12.40
2019-03-13T17:52:07.028Z,12.60
2019-03-13T17:57:13.845Z,12.60
2019-03-13T18:02:21.614Z,12.70
2019-03-13T18:07:29.237Z,12.70
2019-03-13T18:12:35.415Z,12.70
2019-03-13T18:17:42.288Z,12.70
2019-03-13T18:22:48.239Z,12.90
2019-03-13T18:27:54.567Z,12.90
2019-03-13T18:33:01.603Z,13.00
2019-03-13T18:38:09.217Z,13.00
2019-03-13T18:43:15.304Z,13.00
2019-03-13T18:48:22.171Z,13.10
2019-03-13T18:53:29.477Z,13.00
2019-03-13T18:58:36.995Z,13.00
2019-03-13T19:03:43.747Z,13.00
2019-03-13T19:08:49.822Z,13.00
2019-03-13T19:13:58.285Z,12.90
2019-03-13T19:19:04.594Z,12.80
2019-03-13T19:24:12.292Z,12.90
2019-03-13T19:29:20.764Z,12.90
2019-03-13T19:34:27.834Z,12.90
2019-03-13T19:39:33.794Z,12.90
2019-03-13T19:44:41.285Z,12.90
2019-03-13T19:49:47.906Z,12.80
2019-03-13T19:54:54.012Z,12.70
2019-03-13T20:00:01.407Z,12.60
2019-03-13T20:05:08.228Z,12.60
2019-03-13T20:10:16.822Z,12.60
2019-03-13T20:15:24.991Z,12.50
2019-03-13T20:20:32.195Z,12.40
2019-03-13T20:25:39.292Z,12.40
2019-03-13T20:30:46.080Z,12.20
2019-03-13T20:35:53.315Z,12.40
2019-03-13T20:41:00.972Z,12.50
2019-03-13T20:46:08.666Z,12.60
2019-03-13T20:51:15.391Z,12.60
2019-03-13T20:56:22.987Z,12.60
2019-03-13T21:01:30.518Z,12.70
2019-03-13T21:06:38.314Z,12.80
2019-03-13T21:11:44.371Z,12.80
2019-03-13T21:16:51.514Z,12.60
2019-03-13T21:22:00.582Z,12.60
2019-03-13T21:27:06.507Z,12.50
2019-03-13T21:32:14.294Z,12.60
2019-03-13T21:37:20.824Z,12.70
2019-03-13T21:42:28.562Z,12.80
2019-03-13T21:47:35.586Z,12.70
2019-03-13T21:52:43.017Z,12.70
2019-03-13T21:57:52.247Z,12.50
2019-03-13T22:02:59.154Z,12.20
2019-03-13T22:08:06.503Z,12.20
2019-03-13T22:13:14.054Z,11.90
2019-03-13T22:18:21.647Z,11.60
2019-03-13T22:23:27.650Z,11.40
2019-03-13T22:28:35.446Z,11.20
2019-03-13T22:33:43.596Z,11.00
2019-03-13T22:38:50.891Z,10.70
2019-03-13T22:43:58.444Z,10.60
2019-03-13T22:49:04.333Z,10.50
2019-03-13T22:54:10.910Z,10.60
2019-03-13T22:59:18.642Z,10.60
2019-03-13T23:04:24.896Z,10.60
2019-03-13T23:09:31.648Z,10.60
2019-03-13T23:14:39.197Z,10.70
2019-03-13T23:19:45.247Z,10.80
2019-03-13T23:24:52.542Z,10.80
2019-03-13T23:30:00.377Z,10.90
2019-03-13T23:35:08.263Z,10.90
2019-03-13T23:40:15.857Z,10.90
2019-03-13T23:45:23.195Z,10.80
2019-03-13T23:50:30.192Z,10.70
2019-03-13T23:55:37.695Z,10.70
